sensor_id;sensor_type;location;lat;lon;timestamp;pressure;altitude;pressure_sealevel;temperature;humidity
61109;BME280;46995;55.740;37.402;2023-01-29T00:01:49;99702.47;;;-1.84;77.84
61109;BME280;46995;55.740;37.402;2023-01-29T00:04:15;99710.06;;;-1.79;77.94
61109;BME280;46995;55.740;37.402;2023-01-29T00:06:41;99721.81;;;-1.69;77.77
61109;BME280;46995;55.740;37.402;2023-01-29T00:09:07;99690.41;;;-1.85;77.73
61109;BME280;46995;55.740;37.402;2023-01-29T00:11:33;99718.25;;;-1.66;77.79
61109;BME280;46995;55.740;37.402;2023-01-29T00:13:59;99711.75;;;-1.78;77.58
61109;BME280;46995;55.740;37.402;2023-01-29T00:16:27;99687.31;;;-1.96;77.61
61109;BME280;46995;55.740;37.402;2023-01-29T00:18:53;99707.41;;;-1.78;77.69
61109;BME280;46995;55.740;37.402;2023-01-29T00:21:20;99676.81;;;-1.91;77.26
61109;BME280;46995;55.740;37.402;2023-01-29T00:23:47;99704.69;;;-1.73;77.05
61109;BME280;46995;55.740;37.402;2023-01-29T00:26:13;99709.41;;;-1.86;76.90
61109;BME280;46995;55.740;37.402;2023-01-29T00:28:43;99688.69;;;-2.10;77.14
61109;BME280;46995;55.740;37.402;2023-01-29T00:31:11;99667.91;;;-2.35;77.31
61109;BME280;46995;55.740;37.402;2023-01-29T00:33:37;99704.38;;;-2.17;76.78
61109;BME280;46995;55.740;37.402;2023-01-29T00:36:05;99704.28;;;-2.14;77.18
61109;BME280;46995;55.740;37.402;2023-01-29T00:38:32;99688.13;;;-2.20;75.97
61109;BME280;46995;55.740;37.402;2023-01-29T00:41:09;99667.81;;;-2.32;76.63
61109;BME280;46995;55.740;37.402;2023-01-29T00:43:55;99676.16;;;-2.24;76.83
61109;BME280;46995;55.740;37.402;2023-01-29T00:46:39;99676.66;;;-2.13;nan
61109;BME280;46995;55.740;37.402;2023-01-29T00:49:05;99671.53;;;-2.15;75.59
61109;BME280;46995;55.740;37.402;2023-01-29T00:51:32;99690.97;;;-2.01;75.36
61109;BME280;46995;55.740;37.402;2023-01-29T00:53:58;99676.47;;;-2.07;75.60
61109;BME280;46995;55.740;37.402;2023-01-29T00:56:28;99668.91;;;-2.13;75.12
61109;BME280;46995;55.740;37.402;2023-01-29T00:58:54;99678.59;;;-1.93;75.49
61109;BME280;46995;55.740;37.402;2023-01-29T01:01:22;99677.81;;;-1.95;74.42
61109;BME280;46995;55.740;37.402;2023-01-29T01:04:09;99686.38;;;-1.93;74.20
61109;BME280;46995;55.740;37.402;2023-01-29T01:06:37;99666.63;;;-1.96;73.85
61109;BME280;46995;55.740;37.402;2023-01-29T01:09:03;99676.88;;;-1.93;74.00
61109;BME280;46995;55.740;37.402;2023-01-29T01:11:48;99666.44;;;-1.90;73.92
61109;BME280;46995;55.740;37.402;2023-01-29T01:14:17;99668.91;;;-1.87;73.43
61109;BME280;46995;55.740;37.402;2023-01-29T01:16:46;99663.06;;;-1.93;73.48
61109;BME280;46995;55.740;37.402;2023-01-29T01:19:13;99687.88;;;-1.86;73.15
61109;BME280;46995;55.740;37.402;2023-01-29T01:21:40;99690.41;;;-1.85;72.68
61109;BME280;46995;55.740;37.402;2023-01-29T01:24:11;99682.88;;;-1.92;73.15
61109;BME280;46995;55.740;37.402;2023-01-29T01:26:40;99687.22;;;-1.93;73.00
61109;BME280;46995;55.740;37.402;2023-01-29T01:29:09;99646.75;;;-2.20;73.55
61109;BME280;46995;55.740;37.402;2023-01-29T01:31:34;99662.69;;;-2.07;73.13
61109;BME280;46995;55.740;37.402;2023-01-29T01:34:02;99685.44;;;-1.91;73.54
61109;BME280;46995;55.740;37.402;2023-01-29T01:36:29;99672.00;;;-2.02;73.32
61109;BME280;46995;55.740;37.402;2023-01-29T01:38:57;99681.09;;;-1.90;73.20
61109;BME280;46995;55.740;37.402;2023-01-29T01:41:23;99668.59;;;-2.04;73.21
61109;BME280;46995;55.740;37.402;2023-01-29T01:43:53;99678.59;;;-1.93;73.04
61109;BME280;46995;55.740;37.402;2023-01-29T01:46:24;99647.28;;;-2.10;73.08
61109;BME280;46995;55.740;37.402;2023-01-29T01:49:14;99654.91;;;-2.06;73.64
61109;BME280;46995;55.740;37.402;2023-01-29T01:51:46;99651.91;;;-1.94;73.39
61109;BME280;46995;55.740;37.402;2023-01-29T01:54:20;99634.94;;;-2.02;73.51
61109;BME280;46995;55.740;37.402;2023-01-29T01:56:55;99662.16;;;-1.91;73.71
61109;BME280;46995;55.740;37.402;2023-01-29T01:59:35;99663.00;;;-1.90;73.09
61109;BME280;46995;55.740;37.402;2023-01-29T02:02:02;99634.22;;;-2.07;73.83
61109;BME280;46995;55.740;37.402;2023-01-29T02:04:47;99631.66;;;-2.07;73.37
61109;BME280;46995;55.740;37.402;2023-01-29T02:07:33;99615.63;;;-2.19;72.92
61109;BME280;46995;55.740;37.402;2023-01-29T02:10:18;99631.66;;;-2.07;73.52
61109;BME280;46995;55.740;37.402;2023-01-29T02:12:45;99628.22;;;-2.08;73.26
61109;BME280;46995;55.740;37.402;2023-01-29T02:15:12;99616.41;;;-2.15;73.21
61109;BME280;46995;55.740;37.402;2023-01-29T02:17:38;99629.03;;;-2.06;73.16
61109;BME280;46995;55.740;37.402;2023-01-29T02:20:13;99634.06;;;-2.03;73.08
61109;BME280;46995;55.740;37.402;2023-01-29T02:23:15;99634.00;;;-2.00;72.50
61109;BME280;46995;55.740;37.402;2023-01-29T02:32:15;99615.59;;;-1.92;73.46
61109;BME280;46995;55.740;37.402;2023-01-29T02:41:01;99593.88;;;-1.88;72.98
61109;BME280;46995;55.740;37.402;2023-01-29T02:54:38;99579.75;;;-2.03;73.02
61109;BME280;46995;55.740;37.402;2023-01-29T02:57:17;99582.94;;;-1.95;72.72
61109;BME280;46995;55.740;37.402;2023-01-29T03:02:17;99553.25;;;-2.09;72.31
61109;BME280;46995;55.740;37.402;2023-01-29T03:04:51;99551.50;;;-2.09;72.09
61109;BME280;46995;55.740;37.402;2023-01-29T03:07:28;99574.56;;;-2.03;72.26
61109;BME280;46995;55.740;37.402;2023-01-29T03:10:31;99560.06;;;-2.07;72.28
61109;BME280;46995;55.740;37.402;2023-01-29T03:13:14;99563.53;;;-2.08;72.68
61109;BME280;46995;55.740;37.402;2023-01-29T03:15:47;99526.06;;;-2.21;72.28
61109;BME280;46995;55.740;37.402;2023-01-29T03:18:49;99525.09;;;-2.19;71.72
61109;BME280;46995;55.740;37.402;2023-01-29T03:21:34;99515.59;;;-2.18;72.03
61109;BME280;46995;55.740;37.402;2023-01-29T03:24:43;99500.00;;;-2.15;71.85
61109;BME280;46995;55.740;37.402;2023-01-29T03:27:39;99523.41;;;-1.95;72.25
61109;BME280;46995;55.740;37.402;2023-01-29T03:30:32;99484.34;;;-2.12;71.48
61109;BME280;46995;55.740;37.402;2023-01-29T03:33:30;99471.84;;;-2.24;71.72
61109;BME280;46995;55.740;37.402;2023-01-29T03:36:04;99501.25;;;-2.02;72.46
61109;BME280;46995;55.740;37.402;2023-01-29T03:38:31;99492.69;;;-2.04;71.86
61109;BME280;46995;55.740;37.402;2023-01-29T03:41:04;99489.19;;;-2.03;72.28
61109;BME280;46995;55.740;37.402;2023-01-29T03:43:42;99490.69;;;-1.96;71.56
61109;BME280;46995;55.740;37.402;2023-01-29T03:46:29;99470.47;;;-2.09;71.66
61109;BME280;46995;55.740;37.402;2023-01-29T03:49:22;99487.91;;;-1.91;71.72
61109;BME280;46995;55.740;37.402;2023-01-29T03:52:01;99485.31;;;-1.91;71.80
61109;BME280;46995;55.740;37.402;2023-01-29T04:00:29;99470.59;;;-1.89;71.53
61109;BME280;46995;55.740;37.402;2023-01-29T04:03:08;99477.34;;;-1.85;71.64
61109;BME280;46995;55.740;37.402;2023-01-29T04:05:44;99468.75;;;-1.86;72.11
61109;BME280;46995;55.740;37.402;2023-01-29T04:08:26;99466.03;;;-1.83;71.33
61109;BME280;46995;55.740;37.402;2023-01-29T04:11:16;99468.47;;;-1.78;71.63
61109;BME280;46995;55.740;37.402;2023-01-29T04:13:44;99437.13;;;-1.94;71.78
61109;BME280;46995;55.740;37.402;2023-01-29T04:16:20;99461.50;;;-1.78;71.64
61109;BME280;46995;55.740;37.402;2023-01-29T04:19:07;99448.88;;;-1.85;71.88
61109;BME280;46995;55.740;37.402;2023-01-29T04:21:37;99465.94;;;-1.80;72.05
61109;BME280;46995;55.740;37.402;2023-01-29T04:24:05;99458.56;;;-1.90;72.14
61109;BME280;46995;55.740;37.402;2023-01-29T04:34:50;99436.13;;;-1.90;71.45
61109;BME280;46995;55.740;37.402;2023-01-29T04:39:55;99454.00;;;-1.84;72.01
61109;BME280;46995;55.740;37.402;2023-01-29T04:50:39;99453.44;;;-1.92;72.32
61109;BME280;46995;55.740;37.402;2023-01-29T04:53:17;99440.84;;;-2.01;72.54
61109;BME280;46995;55.740;37.402;2023-01-29T04:55:49;99448.47;;;-1.98;72.30
61109;BME280;46995;55.740;37.402;2023-01-29T04:58:31;99434.00;;;-2.03;71.74
61109;BME280;46995;55.740;37.402;2023-01-29T05:00:58;99423.84;;;-2.08;71.93
61109;BME280;46995;55.740;37.402;2023-01-29T05:03:25;99432.47;;;-1.84;71.95
61109;BME280;46995;55.740;37.402;2023-01-29T05:05:55;99428.44;;;-1.93;72.13
61109;BME280;46995;55.740;37.402;2023-01-29T05:08:23;99421.94;;;-2.03;71.54
61109;BME280;46995;55.740;37.402;2023-01-29T05:10:52;99430.28;;;-1.95;72.10
61109;BME280;46995;55.740;37.402;2023-01-29T05:13:19;99423.75;;;-2.05;72.01
61109;BME280;46995;55.740;37.402;2023-01-29T05:16:16;99435.28;;;-1.90;71.83
61109;BME280;46995;55.740;37.402;2023-01-29T05:18:46;99414.84;;;-1.98;71.96
61109;BME280;46995;55.740;37.402;2023-01-29T05:21:12;99429.41;;;-1.95;72.16
61109;BME280;46995;55.740;37.402;2023-01-29T05:23:39;99429.13;;;-1.88;72.09
61109;BME280;46995;55.740;37.402;2023-01-29T05:26:19;99436.56;;;-1.79;71.99
61109;BME280;46995;55.740;37.402;2023-01-29T05:29:04;99418.00;;;-1.90;71.67
61109;BME280;46995;55.740;37.402;2023-01-29T05:31:30;99426.44;;;-1.85;71.75
61109;BME280;46995;55.740;37.402;2023-01-29T05:33:56;99413.16;;;-1.99;71.96
61109;BME280;46995;55.740;37.402;2023-01-29T05:36:21;99422.50;;;-1.95;71.97
61109;BME280;46995;55.740;37.402;2023-01-29T05:38:48;99445.50;;;-1.87;71.67
61109;BME280;46995;55.740;37.402;2023-01-29T05:41:15;99437.00;;;-1.91;71.98
61109;BME280;46995;55.740;37.402;2023-01-29T05:43:41;99426.88;;;-1.97;71.43
61109;BME280;46995;55.740;37.402;2023-01-29T05:46:07;99433.75;;;-1.96;71.23
61109;BME280;46995;55.740;37.402;2023-01-29T05:48:33;99390.78;;;-2.23;71.76
61109;BME280;46995;55.740;37.402;2023-01-29T05:51:01;99441.34;;;-1.91;71.69
61109;BME280;46995;55.740;37.402;2023-01-29T05:53:28;99411.75;;;-2.07;71.64
61109;BME280;46995;55.740;37.402;2023-01-29T05:55:54;99433.75;;;-1.96;71.17
61109;BME280;46995;55.740;37.402;2023-01-29T05:58:22;99436.34;;;-1.96;71.84
61109;BME280;46995;55.740;37.402;2023-01-29T06:00:48;99431.50;;;-2.05;71.43
61109;BME280;46995;55.740;37.402;2023-01-29T06:03:14;99437.66;;;-2.09;71.78
61109;BME280;46995;55.740;37.402;2023-01-29T06:05:40;99442.63;;;-2.03;72.07
61109;BME280;46995;55.740;37.402;2023-01-29T06:08:06;99417.22;;;-2.15;71.98
61109;BME280;46995;55.740;37.402;2023-01-29T06:10:33;99441.56;;;-1.97;71.71
61109;BME280;46995;55.740;37.402;2023-01-29T06:13:01;99420.25;;;-2.04;71.27
61109;BME280;46995;55.740;37.402;2023-01-29T06:15:28;99437.72;;;-1.87;71.89
61109;BME280;46995;55.740;37.402;2023-01-29T06:17:56;99411.34;;;-1.97;71.60
61109;BME280;46995;55.740;37.402;2023-01-29T06:20:22;99426.44;;;-1.85;71.50
61109;BME280;46995;55.740;37.402;2023-01-29T06:22:48;99394.28;;;-2.01;71.44
61109;BME280;46995;55.740;37.402;2023-01-29T06:25:14;99399.41;;;-1.99;71.47
61109;BME280;46995;55.740;37.402;2023-01-29T06:27:40;99412.03;;;-1.92;71.65
61109;BME280;46995;55.740;37.402;2023-01-29T06:30:06;99391.78;;;-2.04;71.47
61109;BME280;46995;55.740;37.402;2023-01-29T06:32:33;99406.09;;;-1.94;71.37
61109;BME280;46995;55.740;37.402;2023-01-29T06:34:59;99409.34;;;-1.89;71.84
61109;BME280;46995;55.740;37.402;2023-01-29T06:37:25;99385.63;;;-2.00;71.49
61109;BME280;46995;55.740;37.402;2023-01-29T06:39:52;99395.75;;;-1.94;71.16
61109;BME280;46995;55.740;37.402;2023-01-29T06:42:19;99392.97;;;-1.89;71.05
61109;BME280;46995;55.740;37.402;2023-01-29T06:44:45;99399.00;;;-1.89;70.71
61109;BME280;46995;55.740;37.402;2023-01-29T06:47:10;99413.28;;;-1.79;70.76
61109;BME280;46995;55.740;37.402;2023-01-29T06:49:36;99401.19;;;-1.78;70.16
61109;BME280;46995;55.740;37.402;2023-01-29T06:52:02;99377.13;;;-1.82;69.80
61109;BME280;46995;55.740;37.402;2023-01-29T06:54:28;99379.63;;;-1.79;69.66
61109;BME280;46995;55.740;37.402;2023-01-29T06:56:54;99399.06;;;-1.68;69.52
61109;BME280;46995;55.740;37.402;2023-01-29T06:59:20;99380.94;;;-1.68;69.44
61109;BME280;46995;55.740;37.402;2023-01-29T07:01:46;99372.38;;;-1.71;69.83
61109;BME280;46995;55.740;37.402;2023-01-29T07:04:12;99362.66;;;-1.64;70.05
61109;BME280;46995;55.740;37.402;2023-01-29T07:06:38;99365.09;;;-1.61;70.29
61109;BME280;46995;55.740;37.402;2023-01-29T07:09:04;99370.94;;;-1.56;70.03
61109;BME280;46995;55.740;37.402;2023-01-29T07:11:30;99366.75;;;-1.58;69.97
61109;BME280;46995;55.740;37.402;2023-01-29T07:13:56;99370.75;;;-1.51;69.82
61109;BME280;46995;55.740;37.402;2023-01-29T07:16:22;99371.41;;;-1.46;69.93
61109;BME280;46995;55.740;37.402;2023-01-29T07:18:49;99361.19;;;-1.49;69.67
61109;BME280;46995;55.740;37.402;2023-01-29T07:21:15;99350.03;;;-1.51;69.24
61109;BME280;46995;55.740;37.402;2023-01-29T07:23:40;99359.00;;;-1.38;69.67
61109;BME280;46995;55.740;37.402;2023-01-29T07:26:06;99365.03;;;-1.38;69.58
61109;BME280;46995;55.740;37.402;2023-01-29T07:28:39;99345.50;;;-1.46;68.94
61109;BME280;46995;55.740;37.402;2023-01-29T07:31:06;99361.34;;;-1.32;69.55
61109;BME280;46995;55.740;37.402;2023-01-29T07:33:32;99367.31;;;-1.30;69.08
61109;BME280;46995;55.740;37.402;2023-01-29T07:36:06;99359.53;;;-1.30;68.92
61109;BME280;46995;55.740;37.402;2023-01-29T07:38:33;99357.88;;;-1.31;68.77
61109;BME280;46995;55.740;37.402;2023-01-29T07:40:59;99354.25;;;-1.27;68.61
61109;BME280;46995;55.740;37.402;2023-01-29T07:43:24;99351.00;;;-1.32;68.98
61109;BME280;46995;55.740;37.402;2023-01-29T07:45:50;99333.22;;;-1.41;69.12
61109;BME280;46995;55.740;37.402;2023-01-29T07:48:18;99351.41;;;-1.21;69.18
61109;BME280;46995;55.740;37.402;2023-01-29T07:50:44;99335.38;;;-1.31;69.04
61109;BME280;46995;55.740;37.402;2023-01-29T07:53:12;99346.09;;;-1.18;68.48
61109;BME280;46995;55.740;37.402;2023-01-29T07:55:43;99329.09;;;-1.25;68.83
61109;BME280;46995;55.740;37.402;2023-01-29T07:58:10;99339.59;;;-1.08;68.45
61109;BME280;46995;55.740;37.402;2023-01-29T08:00:35;99346.53;;;-1.08;68.71
61109;BME280;46995;55.740;37.402;2023-01-29T08:03:06;99343.75;;;-1.04;68.38
61109;BME280;46995;55.740;37.402;2023-01-29T08:05:34;99321.47;;;-1.08;68.32
61109;BME280;46995;55.740;37.402;2023-01-29T08:08:04;99321.47;;;-1.08;67.81
61109;BME280;46995;55.740;37.402;2023-01-29T08:10:29;99294.28;;;-1.18;68.17
61109;BME280;46995;55.740;37.402;2023-01-29T08:12:57;99333.28;;;-1.01;67.87
61109;BME280;46995;55.740;37.402;2023-01-29T08:15:23;99327.25;;;-1.01;67.72
61109;BME280;46995;55.740;37.402;2023-01-29T08:17:51;99322.75;;;-0.98;67.87
61109;BME280;46995;55.740;37.402;2023-01-29T08:20:17;99319.28;;;-0.97;67.96
61109;BME280;46995;55.740;37.402;2023-01-29T08:22:43;99292.31;;;-1.13;68.03
61109;BME280;46995;55.740;37.402;2023-01-29T08:25:10;99301.66;;;-1.09;68.09
61109;BME280;46995;55.740;37.402;2023-01-29T08:27:36;99319.41;;;-1.00;67.84
61109;BME280;46995;55.740;37.402;2023-01-29T08:30:03;99316.94;;;-1.03;67.61
61109;BME280;46995;55.740;37.402;2023-01-29T08:32:29;99304.81;;;-1.02;67.21
61109;BME280;46995;55.740;37.402;2023-01-29T08:34:56;99307.09;;;-0.95;67.67
61109;BME280;46995;55.740;37.402;2023-01-29T08:37:22;99308.50;;;-0.88;66.78
61109;BME280;46995;55.740;37.402;2023-01-29T08:39:47;99308.50;;;-0.88;66.80
61109;BME280;46995;55.740;37.402;2023-01-29T08:42:13;99320.94;;;-0.75;67.02
61109;BME280;46995;55.740;37.402;2023-01-29T08:44:39;99320.88;;;-0.74;66.87
61109;BME280;46995;55.740;37.402;2023-01-29T08:47:29;99305.88;;;-0.67;66.99
61109;BME280;46995;55.740;37.402;2023-01-29T08:49:56;99305.50;;;-0.58;66.41
61109;BME280;46995;55.740;37.402;2023-01-29T08:52:22;99314.66;;;-0.51;66.22
61109;BME280;46995;55.740;37.402;2023-01-29T08:54:47;99300.47;;;-0.63;67.01
61109;BME280;46995;55.740;37.402;2023-01-29T08:57:13;99287.94;;;-0.72;66.30
61109;BME280;46995;55.740;37.402;2023-01-29T08:59:39;99314.19;;;-0.59;66.87
61109;BME280;46995;55.740;37.402;2023-01-29T09:02:05;99303.44;;;-0.70;66.14
61109;BME280;46995;55.740;37.402;2023-01-29T09:04:31;99277.91;;;-0.79;66.61
61109;BME280;46995;55.740;37.402;2023-01-29T09:06:56;99300.06;;;-0.72;66.67
61109;BME280;46995;55.740;37.402;2023-01-29T09:09:22;99287.66;;;-0.84;66.67
61109;BME280;46995;55.740;37.402;2023-01-29T09:11:48;99303.50;;;-0.72;66.98
61109;BME280;46995;55.740;37.402;2023-01-29T09:14:14;99298.50;;;-0.76;67.24
61109;BME280;46995;55.740;37.402;2023-01-29T09:16:43;99300.41;;;-0.80;67.13
61109;BME280;46995;55.740;37.402;2023-01-29T09:19:09;99302.00;;;-0.77;66.71
61109;BME280;46995;55.740;37.402;2023-01-29T09:21:37;99293.47;;;-0.79;66.64
61109;BME280;46995;55.740;37.402;2023-01-29T09:24:06;99284.75;;;-0.78;66.86
61109;BME280;46995;55.740;37.402;2023-01-29T09:26:32;99299.72;;;-0.65;66.68
61109;BME280;46995;55.740;37.402;2023-01-29T09:28:58;99290.19;;;-0.64;66.30
61109;BME280;46995;55.740;37.402;2023-01-29T09:31:24;99260.31;;;-0.73;65.76
61109;BME280;46995;55.740;37.402;2023-01-29T09:33:51;99267.50;;;-0.59;66.15
61109;BME280;46995;55.740;37.402;2023-01-29T09:36:17;99269.03;;;-0.55;65.71
61109;BME280;46995;55.740;37.402;2023-01-29T09:38:43;99267.91;;;-0.50;65.66
61109;BME280;46995;55.740;37.402;2023-01-29T09:44:02;99290.13;;;-0.44;66.02
61109;BME280;46995;55.740;37.402;2023-01-29T09:46:38;99266.72;;;-0.61;65.52
61109;BME280;46995;55.740;37.402;2023-01-29T09:49:31;99280.94;;;-0.51;65.66
61109;BME280;46995;55.740;37.402;2023-01-29T09:55:02;99277.94;;;-0.61;66.06
61109;BME280;46995;55.740;37.402;2023-01-29T09:57:52;99237.91;;;-0.74;66.04
61109;BME280;46995;55.740;37.402;2023-01-29T10:00:23;99252.63;;;-0.56;65.82
61109;BME280;46995;55.740;37.402;2023-01-29T10:20:02;99181.19;;;-0.63;65.43
61109;BME280;46995;55.740;37.402;2023-01-29T10:22:43;99206.16;;;-0.42;64.71
61109;BME280;46995;55.740;37.402;2023-01-29T10:25:19;99200.88;;;-0.40;65.02
61109;BME280;46995;55.740;37.402;2023-01-29T10:28:17;99146.81;;;-0.66;64.60
61109;BME280;46995;55.740;37.402;2023-01-29T10:30:56;99191.13;;;-0.35;65.14
61109;BME280;46995;55.740;37.402;2023-01-29T10:33:48;99152.81;;;-0.47;65.44
61109;BME280;46995;55.740;37.402;2023-01-29T10:36:31;99102.78;;;-0.68;64.65
61109;BME280;46995;55.740;37.402;2023-01-29T10:38:58;99170.56;;;-0.21;64.90
61109;BME280;46995;55.740;37.402;2023-01-29T10:52:50;99156.34;;;0.05;63.99
61109;BME280;46995;55.740;37.402;2023-01-29T11:00:54;99128.06;;;-0.18;64.03
61109;BME280;46995;55.740;37.402;2023-01-29T11:03:28;99136.31;;;-0.10;64.15
61109;BME280;46995;55.740;37.402;2023-01-29T11:06:16;99136.84;;;-0.04;64.27
61109;BME280;46995;55.740;37.402;2023-01-29T11:08:55;99132.44;;;-0.02;64.22
61109;BME280;46995;55.740;37.402;2023-01-29T11:11:32;99140.91;;;0.02;64.40
61109;BME280;46995;55.740;37.402;2023-01-29T11:14:01;99126.63;;;-0.07;63.85
61109;BME280;46995;55.740;37.402;2023-01-29T11:16:40;99103.63;;;-0.14;63.94
61109;BME280;46995;55.740;37.402;2023-01-29T11:19:07;99105.56;;;-0.18;64.45
61109;BME280;46995;55.740;37.402;2023-01-29T11:21:57;99114.34;;;-0.03;64.43
61109;BME280;46995;55.740;37.402;2023-01-29T11:24:24;99106.16;;;-0.13;64.32
61109;BME280;46995;55.740;37.402;2023-01-29T11:26:54;99119.59;;;-0.05;63.83
61109;BME280;46995;55.740;37.402;2023-01-29T11:29:38;99126.47;;;-0.04;64.17
61109;BME280;46995;55.740;37.402;2023-01-29T11:37:43;99109.22;;;-0.05;64.14
61109;BME280;46995;55.740;37.402;2023-01-29T11:40:27;99105.09;;;-0.09;64.43
61109;BME280;46995;55.740;37.402;2023-01-29T11:43:31;99075.94;;;-0.31;64.36
61109;BME280;46995;55.740;37.402;2023-01-29T11:46:02;99075.94;;;-0.31;64.49
61109;BME280;46995;55.740;37.402;2023-01-29T11:48:50;99113.72;;;-0.08;64.55
61109;BME280;46995;55.740;37.402;2023-01-29T11:51:27;99110.16;;;-0.06;64.37
61109;BME280;46995;55.740;37.402;2023-01-29T11:53:56;99094.72;;;-0.09;64.37
61109;BME280;46995;55.740;37.402;2023-01-29T11:56:42;99094.09;;;0.04;64.53
61109;BME280;46995;55.740;37.402;2023-01-29T12:00:03;99091.03;;;0.13;64.06
61109;BME280;46995;55.740;37.402;2023-01-29T12:02:35;99078.13;;;0.11;63.98
61109;BME280;46995;55.740;37.402;2023-01-29T12:05:21;99039.31;;;-0.25;63.98
61109;BME280;46995;55.740;37.402;2023-01-29T12:07:57;99046.41;;;-0.28;64.10
61109;BME280;46995;55.740;37.402;2023-01-29T12:10:35;99024.69;;;-0.43;64.22
61109;BME280;46995;55.740;37.402;2023-01-29T12:15:38;99083.72;;;-0.14;64.82
61109;BME280;46995;55.740;37.402;2023-01-29T12:21:02;99046.63;;;-0.50;65.28
61109;BME280;46995;55.740;37.402;2023-01-29T12:23:52;99081.56;;;-0.40;65.49
61109;BME280;46995;55.740;37.402;2023-01-29T12:32:11;99076.97;;;-0.52;66.82
61109;BME280;46995;55.740;37.402;2023-01-29T12:37:25;99079.78;;;-0.57;66.51
61109;BME280;46995;55.740;37.402;2023-01-29T12:39:56;99071.63;;;-0.66;66.86
61109;BME280;46995;55.740;37.402;2023-01-29T12:42:23;99040.00;;;-0.92;66.86
61109;BME280;46995;55.740;37.402;2023-01-29T12:47:41;99084.84;;;-0.54;67.55
61109;BME280;46995;55.740;37.402;2023-01-29T12:52:46;99085.59;;;-0.69;67.60
61109;BME280;46995;55.740;37.402;2023-01-29T12:55:36;99098.16;;;-0.61;67.99
61109;BME280;46995;55.740;37.402;2023-01-29T12:58:19;99084.59;;;-0.66;67.89
61109;BME280;46995;55.740;37.402;2023-01-29T13:00:48;99088.41;;;-0.73;67.96
61109;BME280;46995;55.740;37.402;2023-01-29T13:05:56;99085.88;;;-0.75;68.94
61109;BME280;46995;55.740;37.402;2023-01-29T13:08:47;99093.44;;;-0.70;68.56
61109;BME280;46995;55.740;37.402;2023-01-29T13:12:13;99061.09;;;-0.80;68.76
61109;BME280;46995;55.740;37.402;2023-01-29T13:14:20;99073.75;;;-0.74;68.85
61109;BME280;46995;55.740;37.402;2023-01-29T13:16:50;99076.47;;;-0.77;68.78
61109;BME280;46995;55.740;37.402;2023-01-29T13:19:30;99051.34;;;-0.94;68.97
61109;BME280;46995;55.740;37.402;2023-01-29T13:21:59;99062.78;;;-0.79;68.99
61109;BME280;46995;55.740;37.402;2023-01-29T13:24:36;99059.25;;;-0.78;68.94
61109;BME280;46995;55.740;37.402;2023-01-29T13:27:03;99048.25;;;-0.83;69.13
61109;BME280;46995;55.740;37.402;2023-01-29T13:29:33;99049.81;;;-0.79;69.44
61109;BME280;46995;55.740;37.402;2023-01-29T13:32:01;99062.47;;;-0.73;69.19
61109;BME280;46995;55.740;37.402;2023-01-29T13:34:43;99027.50;;;-1.01;69.69
61109;BME280;46995;55.740;37.402;2023-01-29T13:37:17;99061.22;;;-0.83;69.54
61109;BME280;46995;55.740;37.402;2023-01-29T13:39:52;99027.91;;;-1.10;69.96
61109;BME280;46995;55.740;37.402;2023-01-29T13:45:00;99049.19;;;-1.03;70.04
61109;BME280;46995;55.740;37.402;2023-01-29T13:47:32;99059.34;;;-0.99;70.10
61109;BME280;46995;55.740;37.402;2023-01-29T13:50:03;99027.38;;;-1.16;70.29
61109;BME280;46995;55.740;37.402;2023-01-29T13:52:35;99054.16;;;-0.99;69.97
61109;BME280;46995;55.740;37.402;2023-01-29T14:05:40;99046.59;;;-1.03;70.40
61109;BME280;46995;55.740;37.402;2023-01-29T14:10:40;99021.19;;;-1.14;70.65
61109;BME280;46995;55.740;37.402;2023-01-29T14:18:27;99040.16;;;-0.95;70.46
61109;BME280;46995;55.740;37.402;2023-01-29T14:21:05;99015.22;;;-0.97;70.27
61109;BME280;46995;55.740;37.402;2023-01-29T14:29:02;99021.19;;;-0.95;70.05
61109;BME280;46995;55.740;37.402;2023-01-29T14:31:42;99031.03;;;-0.84;69.86
61109;BME280;46995;55.740;37.402;2023-01-29T14:34:25;98991.50;;;-1.07;70.24
61109;BME280;46995;55.740;37.402;2023-01-29T14:36:55;99006.53;;;-0.96;70.16
61109;BME280;46995;55.740;37.402;2023-01-29T14:39:43;99016.53;;;-0.89;69.83
61109;BME280;46995;55.740;37.402;2023-01-29T14:53:05;98958.06;;;-1.30;70.60
61109;BME280;46995;55.740;37.402;2023-01-29T14:55:57;99019.06;;;-0.87;70.74
61109;BME280;46995;55.740;37.402;2023-01-29T14:58:43;99020.19;;;-0.93;71.15
61109;BME280;46995;55.740;37.402;2023-01-29T15:01:18;98991.13;;;-1.16;71.52
61109;BME280;46995;55.740;37.402;2023-01-29T15:03:48;98989.81;;;-1.08;71.35
61109;BME280;46995;55.740;37.402;2023-01-29T15:06:19;98994.88;;;-1.05;71.68
61109;BME280;46995;55.740;37.402;2023-01-29T15:08:55;99006.31;;;-0.92;71.81
61109;BME280;46995;55.740;37.402;2023-01-29T15:11:47;99001.59;;;-1.01;72.41
61109;BME280;46995;55.740;37.402;2023-01-29T15:14:25;98998.22;;;-1.03;72.60
61109;BME280;46995;55.740;37.402;2023-01-29T15:17:05;99002.22;;;-0.96;73.00
61109;BME280;46995;55.740;37.402;2023-01-29T15:19:43;99014.38;;;-0.98;72.88
61109;BME280;46995;55.740;37.402;2023-01-29T15:22:20;99001.88;;;-1.07;74.12
61109;BME280;46995;55.740;37.402;2023-01-29T15:25:01;98968.44;;;-1.30;74.25
61109;BME280;46995;55.740;37.402;2023-01-29T15:27:30;99008.19;;;-1.12;74.46
61109;BME280;46995;55.740;37.402;2023-01-29T15:29:58;99016.97;;;-0.98;74.07
61109;BME280;46995;55.740;37.402;2023-01-29T15:32:38;99018.81;;;-1.00;73.76
61109;BME280;46995;55.740;37.402;2023-01-29T15:35:08;99009.44;;;-1.02;73.71
61109;BME280;46995;55.740;37.402;2023-01-29T15:37:35;99015.44;;;-1.02;74.28
61109;BME280;46995;55.740;37.402;2023-01-29T15:40:03;99013.31;;;-0.94;74.08
61109;BME280;46995;55.740;37.402;2023-01-29T15:42:42;99010.28;;;-1.02;74.69
61109;BME280;46995;55.740;37.402;2023-01-29T15:45:26;98993.31;;;-1.09;75.18
61109;BME280;46995;55.740;37.402;2023-01-29T15:48:17;99003.41;;;-1.03;75.19
61109;BME280;46995;55.740;37.402;2023-01-29T15:50:45;99014.53;;;-1.01;74.43
61109;BME280;46995;55.740;37.402;2023-01-29T15:53:20;98961.72;;;-1.34;75.61
61109;BME280;46995;55.740;37.402;2023-01-29T15:55:48;98992.81;;;-1.15;75.61